Time;durP1;ratioP1;P1;durP2;ratioP2;P2;SDS_P1;SDS_P2;PMS_P1;PMS_P2;Temp;Humidity;BMP_temperature;BMP_pressure;BME280_temperature;BME280_humidity;BME280_pressure;Samples;Min_cycle;Max_cycle;Signal;HPM_P1;HPM_P2
2022/03/11 00:01:07;;;;;;;3.10;2.65;;;20.50;39.80;;;;;;4975224;28;20197;-66
2022/03/11 00:03:33;;;;;;;2.58;2.38;;;20.50;39.70;;;;;;4976248;28;20193;-66
2022/03/11 00:05:59;;;;;;;2.60;2.28;;;20.40;39.80;;;;;;4958594;28;20258;-66
2022/03/11 00:08:25;;;;;;;2.97;2.47;;;20.40;39.80;;;;;;4974469;28;20236;-66
2022/03/11 00:10:51;;;;;;;2.92;2.63;;;20.50;39.90;;;;;;4974901;28;20201;-66
2022/03/11 00:13:17;;;;;;;3.10;2.78;;;20.40;39.80;;;;;;4974728;28;20185;-67
2022/03/11 00:15:42;;;;;;;3.40;3.10;;;20.50;39.90;;;;;;4979078;28;20271;-67
2022/03/11 00:18:08;;;;;;;2.80;2.60;;;20.50;39.80;;;;;;4989632;28;20221;-67
2022/03/11 00:20:34;;;;;;;3.25;2.95;;;20.50;40.40;;;;;;4997868;28;20199;-67
2022/03/11 00:23:01;;;;;;;3.80;3.10;;;20.40;39.80;;;;;;4998060;28;20255;-67
2022/03/11 00:25:26;;;;;;;3.40;3.10;;;20.40;39.80;;;;;;4997651;28;20204;-67
2022/03/11 00:27:52;;;;;;;3.20;2.90;;;20.40;39.60;;;;;;5015314;28;20192;-67
2022/03/11 00:30:18;;;;;;;3.10;2.80;;;20.40;39.60;;;;;;4981862;28;20185;-67
2022/03/11 00:32:45;;;;;;;3.20;2.65;;;20.40;39.60;;;;;;4997863;28;20279;-67
2022/03/11 00:35:12;;;;;;;4.10;3.70;;;20.40;39.60;;;;;;5014780;28;20195;-67
2022/03/11 00:37:39;;;;;;;3.58;3.13;;;20.40;39.60;;;;;;4996455;28;20199;-67
2022/03/11 00:40:07;;;;;;;3.53;3.22;;;20.40;39.50;;;;;;4981335;28;20183;-67
2022/03/11 00:42:33;;;;;;;3.53;2.90;;;20.40;39.50;;;;;;4981560;28;20188;-67
2022/03/11 00:45:00;;;;;;;3.25;2.95;;;20.40;39.50;;;;;;5014901;28;20211;-67
2022/03/11 00:47:26;;;;;;;2.88;2.67;;;20.40;39.60;;;;;;4989008;28;20200;-67
2022/03/11 00:49:52;;;;;;;3.20;2.83;;;20.40;39.80;;;;;;4979073;28;20197;-67
2022/03/11 00:52:18;;;;;;;3.35;3.05;;;20.40;39.80;;;;;;4977991;28;20189;-67
2022/03/11 00:54:44;;;;;;;3.25;2.95;;;20.40;39.80;;;;;;4977822;28;20275;-67
2022/03/11 00:57:10;;;;;;;3.33;3.03;;;20.40;39.90;;;;;;4977654;28;20217;-67
2022/03/11 00:59:35;;;;;;;3.15;2.90;;;20.40;39.90;;;;;;4961695;28;20193;-68
2022/03/11 01:02:01;;;;;;;3.50;3.20;;;20.40;39.90;;;;;;4961803;28;20685;-67
2022/03/11 01:04:27;;;;;;;2.85;2.65;;;20.40;39.90;;;;;;4977708;28;20180;-67
2022/03/11 01:06:53;;;;;;;3.53;3.22;;;20.40;39.90;;;;;;4977136;28;20270;-67
2022/03/11 01:09:18;;;;;;;3.30;3.00;;;20.40;39.90;;;;;;4961423;28;20203;-67
2022/03/11 01:11:44;;;;;;;3.40;3.10;;;20.40;39.90;;;;;;4977776;28;20192;-67
2022/03/11 01:14:10;;;;;;;3.50;3.20;;;20.40;39.90;;;;;;4977561;28;20366;-67
2022/03/11 01:16:36;;;;;;;3.78;3.47;;;20.40;39.80;;;;;;4985161;28;20238;-67
2022/03/11 01:19:02;;;;;;;3.72;3.42;;;20.40;39.90;;;;;;4989209;28;20188;-67
2022/03/11 01:21:28;;;;;;;3.80;3.50;;;20.40;39.80;;;;;;4996690;28;20215;-67
2022/03/11 01:23:54;;;;;;;4.25;3.90;;;20.40;39.90;;;;;;4996799;28;20192;-67
2022/03/11 01:26:20;;;;;;;4.47;4.07;;;20.40;39.80;;;;;;4996395;28;20215;-67
2022/03/11 01:28:47;;;;;;;4.50;4.10;;;20.40;39.80;;;;;;4980850;28;20200;-67
2022/03/11 01:31:13;;;;;;;5.00;4.55;;;20.40;39.80;;;;;;4996742;28;20219;-67
2022/03/11 01:33:41;;;;;;;4.85;3.85;;;20.30;39.60;;;;;;4980692;28;20188;-67
2022/03/11 01:36:10;;;;;;;4.28;3.88;;;20.40;39.80;;;;;;4996293;28;20219;-67
2022/03/11 01:38:36;;;;;;;4.25;3.88;;;20.30;39.70;;;;;;4996647;28;20222;-67
2022/03/11 01:41:03;;;;;;;4.28;3.88;;;20.40;39.90;;;;;;4980586;28;20211;-67
2022/03/11 01:43:30;;;;;;;3.97;3.58;;;20.30;39.70;;;;;;4980450;28;20199;-67
2022/03/11 01:45:59;;;;;;;4.03;3.72;;;20.30;39.80;;;;;;4988199;28;20215;-67
2022/03/11 01:48:26;;;;;;;3.80;3.38;;;20.40;40.00;;;;;;4989395;28;20185;-68
2022/03/11 01:50:52;;;;;;;4.60;3.80;;;20.30;39.90;;;;;;4976876;28;20196;-67
2022/03/11 01:53:18;;;;;;;3.95;3.65;;;20.40;40.00;;;;;;4977022;28;20189;-67
2022/03/11 01:55:44;;;;;;;4.00;3.70;;;20.40;40.00;;;;;;4960467;28;20279;-67
2022/03/11 01:58:11;;;;;;;4.25;3.85;;;20.40;40.00;;;;;;4976738;28;20169;-67
2022/03/11 02:00:40;;;;;;;3.67;3.38;;;20.30;40.00;;;;;;4976730;28;20181;-67
2022/03/11 02:03:07;;;;;;;4.55;4.15;;;20.40;40.00;;;;;;4976732;28;20185;-67
2022/03/11 02:05:33;;;;;;;4.28;3.97;;;20.40;40.00;;;;;;4976052;28;20216;-67
2022/03/11 02:07:59;;;;;;;4.50;4.15;;;20.30;39.90;;;;;;4993936;28;20674;-67
2022/03/11 02:10:26;;;;;;;4.85;4.45;;;20.40;40.00;;;;;;4960635;28;20177;-67
2022/03/11 02:12:52;;;;;;;5.15;4.75;;;20.40;40.00;;;;;;4967031;28;20255;-68
2022/03/11 02:15:18;;;;;;;4.97;4.57;;;20.30;39.90;;;;;;4960032;28;20212;-67
2022/03/11 02:17:44;;;;;;;5.82;4.85;;;20.40;40.00;;;;;;4969221;28;20185;-67
2022/03/11 02:20:11;;;;;;;5.00;4.50;;;20.30;39.70;;;;;;4979869;28;20172;-67
2022/03/11 02:22:41;;;;;;;5.28;4.78;;;20.30;39.80;;;;;;4979728;28;20198;-67
2022/03/11 02:25:09;;;;;;;5.13;4.60;;;20.40;39.80;;;;;;4995453;28;20207;-67
2022/03/11 02:27:37;;;;;;;5.22;4.72;;;20.30;39.70;;;;;;5013100;28;20271;-67
2022/03/11 02:30:20;;;;;;;4.80;4.35;;;20.30;39.80;;;;;;4995655;28;20194;-67
2022/03/11 02:32:46;;;;;;;4.47;4.07;;;20.30;39.90;;;;;;5013081;28;20172;-67
2022/03/11 02:35:14;;;;;;;4.80;4.40;;;20.30;39.90;;;;;;4978845;28;20176;-67
2022/03/11 02:37:40;;;;;;;4.75;4.35;;;20.30;40.00;;;;;;4979545;28;20172;-67
2022/03/11 02:40:08;;;;;;;5.10;4.60;;;20.30;40.00;;;;;;4979368;28;20187;-67
2022/03/11 02:42:33;;;;;;;5.30;4.63;;;20.30;40.00;;;;;;4995346;28;20180;-67
2022/03/11 02:45:05;;;;;;;4.55;4.15;;;20.30;40.00;;;;;;4995083;28;20176;-67
2022/03/11 02:47:30;;;;;;;5.53;5.03;;;20.30;40.00;;;;;;4986699;28;20199;-67
2022/03/11 02:49:56;;;;;;;5.22;4.72;;;20.30;40.00;;;;;;4987053;28;20179;-67
2022/03/11 02:52:23;;;;;;;5.80;5.22;;;20.30;40.00;;;;;;4995138;28;20191;-67
2022/03/11 02:54:49;;;;;;;6.07;5.47;;;20.30;40.00;;;;;;4978866;28;20184;-67
2022/03/11 02:57:16;;;;;;;5.82;5.32;;;20.30;39.90;;;;;;4978744;28;20204;-67
2022/03/11 02:59:44;;;;;;;5.63;5.13;;;20.30;39.90;;;;;;4995037;28;20184;-67
2022/03/11 03:02:10;;;;;;;5.72;5.15;;;20.30;39.90;;;;;;4994509;28;20176;-67
2022/03/11 03:04:35;;;;;;;5.45;4.95;;;20.30;39.90;;;;;;5012036;28;20198;-67
2022/03/11 03:07:01;;;;;;;6.07;5.57;;;20.30;39.80;;;;;;5011851;28;20211;-67
2022/03/11 03:09:27;;;;;;;5.90;5.40;;;20.30;39.80;;;;;;4995284;28;20180;-67
2022/03/11 03:11:53;;;;;;;5.78;5.25;;;20.30;39.90;;;;;;4994905;28;20187;-67
2022/03/11 03:14:19;;;;;;;5.10;4.70;;;20.30;39.80;;;;;;4995187;28;20188;-68
2022/03/11 03:16:45;;;;;;;5.50;5.00;;;20.30;39.90;;;;;;4998019;28;20217;-67
2022/03/11 03:19:13;;;;;;;5.30;4.88;;;20.30;40.00;;;;;;4966128;28;20200;-67
2022/03/11 03:21:39;;;;;;;4.75;4.35;;;20.30;39.80;;;;;;4978270;28;20181;-67
2022/03/11 03:24:07;;;;;;;5.70;5.20;;;20.30;40.00;;;;;;4959397;28;20185;-67
2022/03/11 03:26:33;;;;;;;5.72;5.13;;;20.30;40.00;;;;;;4975071;28;20270;-67
2022/03/11 03:28:58;;;;;;;4.82;4.43;;;20.30;40.00;;;;;;4959419;28;20267;-67
2022/03/11 03:31:24;;;;;;;5.10;4.70;;;20.30;40.00;;;;;;4959249;28;20665;-67
2022/03/11 03:33:51;;;;;;;5.30;4.80;;;20.30;40.00;;;;;;4975605;28;20295;-67
2022/03/11 03:36:17;;;;;;;5.13;4.70;;;20.30;40.00;;;;;;4975088;28;20227;-67
2022/03/11 03:38:42;;;;;;;5.40;4.90;;;20.30;40.00;;;;;;4975276;28;20185;-67
2022/03/11 03:41:08;;;;;;;5.55;5.05;;;20.30;40.00;;;;;;4975384;28;20177;-67
2022/03/11 03:43:35;;;;;;;5.57;5.07;;;20.30;40.10;;;;;;4975359;28;20181;-67
2022/03/11 03:46:01;;;;;;;5.40;4.90;;;20.30;40.10;;;;;;4959262;28;20625;-67
2022/03/11 03:48:27;;;;;;;5.57;5.07;;;20.30;40.10;;;;;;5000560;28;20224;-67
2022/03/11 03:50:53;;;;;;;6.00;5.32;;;20.30;40.00;;;;;;4993583;28;20207;-67
2022/03/11 03:53:19;;;;;;;5.47;4.97;;;20.30;40.00;;;;;;4986595;28;20279;-67
2022/03/11 03:55:44;;;;;;;6.03;5.43;;;20.30;40.50;;;;;;4974993;28;20209;-67
2022/03/11 03:58:10;;;;;;;6.20;5.70;;;20.30;39.90;;;;;;4975104;28;20185;-67
2022/03/11 04:00:36;;;;;;;4.85;4.45;;;20.30;39.90;;;;;;4959416;28;20185;-67
2022/03/11 04:03:02;;;;;;;5.85;5.35;;;20.30;39.90;;;;;;4959285;28;20188;-67
2022/03/11 04:08:05;;;;;;;5.30;4.90;;;20.20;39.70;;;;;;4949796;29;20249;-66
2022/03/11 04:10:31;;;;;;;5.07;4.57;;;20.20;39.80;;;;;;4952479;29;20222;-68
2022/03/11 04:12:57;;;;;;;4.85;4.45;;;20.20;39.90;;;;;;4954962;28;20724;-67
2022/03/11 04:15:23;;;;;;;5.00;4.60;;;20.20;39.80;;;;;;4957028;29;20178;-66
2022/03/11 04:17:49;;;;;;;4.82;4.32;;;20.20;39.80;;;;;;4956014;29;20217;-66
2022/03/11 04:20:15;;;;;;;5.00;4.60;;;20.20;39.90;;;;;;4955980;29;20249;-66
2022/03/11 04:22:45;;;;;;;5.55;5.05;;;20.20;39.90;;;;;;4955798;29;20222;-65
2022/03/11 04:25:13;;;;;;;5.25;4.82;;;20.20;40.00;;;;;;4939757;29;20648;-66
2022/03/11 04:27:39;;;;;;;5.63;5.13;;;20.20;39.90;;;;;;4939897;29;20202;-66
2022/03/11 04:30:07;;;;;;;5.38;4.88;;;20.20;40.00;;;;;;4956933;28;20221;-66
2022/03/11 04:32:32;;;;;;;5.47;4.97;;;20.20;40.00;;;;;;4939642;29;20192;-66
2022/03/11 04:34:58;;;;;;;6.22;5.47;;;20.20;39.90;;;;;;4955658;29;20191;-66
2022/03/11 04:37:24;;;;;;;5.40;5.00;;;20.20;40.00;;;;;;4955493;29;20241;-66
2022/03/11 04:39:50;;;;;;;5.72;5.22;;;20.20;40.00;;;;;;4955839;29;20270;-66
2022/03/11 04:42:15;;;;;;;5.57;5.07;;;20.20;39.90;;;;;;4955609;29;20189;-67
2022/03/11 04:44:41;;;;;;;4.60;4.25;;;20.20;39.80;;;;;;4955488;29;20190;-67
2022/03/11 04:47:07;;;;;;;5.93;5.13;;;20.20;39.80;;;;;;4955444;29;20233;-67
2022/03/11 04:49:32;;;;;;;5.75;5.25;;;20.20;39.80;;;;;;4939585;29;20178;-66
2022/03/11 04:51:58;;;;;;;5.70;4.82;;;20.20;39.80;;;;;;4955520;29;20194;-66
2022/03/11 04:54:24;;;;;;;4.88;4.47;;;20.20;39.80;;;;;;4955726;29;20186;-66
2022/03/11 04:56:50;;;;;;;5.13;4.70;;;20.20;39.70;;;;;;4954985;29;20628;-66
2022/03/11 04:59:16;;;;;;;5.38;4.75;;;20.20;39.80;;;;;;4955311;29;20225;-66
2022/03/11 05:01:41;;;;;;;4.82;4.43;;;20.20;39.70;;;;;;4955466;29;20221;-66
2022/03/11 05:04:07;;;;;;;5.50;4.85;;;20.20;39.70;;;;;;4939616;29;20189;-66
2022/03/11 05:06:33;;;;;;;4.28;3.88;;;20.20;39.70;;;;;;4955069;29;20222;-66
2022/03/11 05:08:58;;;;;;;5.10;4.70;;;20.20;39.80;;;;;;4955061;29;20576;-66
2022/03/11 05:11:24;;;;;;;4.60;4.20;;;20.20;39.80;;;;;;4954987;29;20249;-66
2022/03/11 05:13:50;;;;;;;5.22;4.72;;;20.20;39.80;;;;;;4939377;29;20194;-66
2022/03/11 05:16:15;;;;;;;4.80;3.90;;;20.20;39.80;;;;;;4938567;29;20230;-65
2022/03/11 05:18:41;;;;;;;5.22;4.72;;;20.20;39.80;;;;;;4971335;28;20229;-66
2022/03/11 05:21:08;;;;;;;4.32;3.92;;;20.20;39.80;;;;;;4955242;29;20181;-66
2022/03/11 05:23:33;;;;;;;4.70;4.32;;;20.20;39.80;;;;;;4954234;28;20183;-66
2022/03/11 05:25:59;;;;;;;4.78;4.38;;;20.20;39.90;;;;;;4954455;29;20210;-66
2022/03/11 05:28:25;;;;;;;5.40;4.30;;;20.20;39.80;;;;;;4938855;29;20198;-66
2022/03/11 05:30:51;;;;;;;5.22;4.72;;;20.20;39.80;;;;;;4955805;29;20187;-66
2022/03/11 05:33:20;;;;;;;5.13;4.70;;;20.20;39.80;;;;;;4939214;29;20206;-66
2022/03/11 05:35:45;;;;;;;4.38;3.97;;;20.20;39.80;;;;;;4954400;29;20210;-66
2022/03/11 05:38:11;;;;;;;4.65;4.25;;;20.20;39.80;;;;;;4938855;29;20226;-65
2022/03/11 05:40:37;;;;;;;4.53;4.13;;;20.20;39.80;;;;;;4938509;29;20187;-66
2022/03/11 05:43:03;;;;;;;4.90;4.50;;;20.20;39.80;;;;;;4938759;29;20186;-66
2022/03/11 05:45:29;;;;;;;4.82;4.43;;;20.20;39.70;;;;;;4954356;29;20216;-66
2022/03/11 05:47:55;;;;;;;4.63;4.22;;;20.20;39.70;;;;;;4953678;29;20292;-66
2022/03/11 05:50:21;;;;;;;4.50;4.10;;;20.10;39.60;;;;;;4955612;28;20190;-66
2022/03/11 05:52:49;;;;;;;5.20;4.70;;;20.10;39.50;;;;;;4938354;29;20182;-66
2022/03/11 05:55:15;;;;;;;4.70;4.25;;;20.10;39.50;;;;;;4954053;29;20559;-65
2022/03/11 05:57:41;;;;;;;4.55;4.15;;;20.10;39.50;;;;;;4938046;29;20224;-66
2022/03/11 06:00:07;;;;;;;4.55;4.15;;;20.10;39.40;;;;;;4954254;29;20179;-66
2022/03/11 06:02:40;;;;;;;4.45;4.05;;;20.10;39.50;;;;;;4954218;29;20233;-66
2022/03/11 06:05:10;;;;;;;4.10;3.80;;;20.10;39.60;;;;;;4938273;29;20191;-64
2022/03/11 06:07:37;;;;;;;4.78;4.22;;;20.10;39.60;;;;;;4954025;29;20296;-66
2022/03/11 06:10:03;;;;;;;4.22;3.92;;;20.10;39.60;;;;;;4938386;29;20249;-66
2022/03/11 06:12:29;;;;;;;4.20;3.80;;;20.10;39.60;;;;;;4938252;29;20257;-67
2022/03/11 06:14:54;;;;;;;4.15;3.75;;;20.10;39.60;;;;;;4938088;29;20643;-67
2022/03/11 06:17:20;;;;;;;4.43;4.05;;;20.10;39.60;;;;;;4928194;29;20215;-66
2022/03/11 06:19:46;;;;;;;4.60;4.10;;;20.10;39.60;;;;;;4953789;29;20183;-66
2022/03/11 06:22:11;;;;;;;4.30;3.90;;;20.10;39.60;;;;;;4937773;29;20218;-66
2022/03/11 06:24:37;;;;;;;4.38;3.97;;;20.10;39.60;;;;;;4938037;29;20183;-66
2022/03/11 06:27:03;;;;;;;4.57;4.18;;;20.10;39.70;;;;;;4954621;29;20210;-66
2022/03/11 06:29:29;;;;;;;4.93;4.43;;;20.10;39.60;;;;;;4937612;29;20286;-66
2022/03/11 06:31:55;;;;;;;5.50;4.97;;;20.10;39.60;;;;;;4937929;29;20282;-66
2022/03/11 06:34:20;;;;;;;4.90;4.35;;;20.10;39.50;;;;;;4953687;29;20194;-66
2022/03/11 06:36:46;;;;;;;5.10;4.63;;;20.10;39.50;;;;;;4936383;29;20222;-67
2022/03/11 06:39:13;;;;;;;4.93;4.43;;;20.10;39.50;;;;;;4937997;29;20185;-67
2022/03/11 06:41:41;;;;;;;4.88;4.40;;;20.10;39.50;;;;;;4953620;29;20194;-67
2022/03/11 06:44:07;;;;;;;4.63;4.18;;;20.10;39.40;;;;;;4937260;29;20216;-66
2022/03/11 06:46:33;;;;;;;4.75;4.35;;;20.10;39.30;;;;;;4937241;29;20228;-66
2022/03/11 06:48:59;;;;;;;5.03;4.40;;;20.10;39.20;;;;;;4953285;29;20238;-67
2022/03/11 06:51:25;;;;;;;5.13;4.63;;;20.10;39.20;;;;;;4953403;29;20209;-66
2022/03/11 06:53:51;;;;;;;5.07;4.57;;;20.10;39.10;;;;;;4937232;29;20268;-66
2022/03/11 06:56:16;;;;;;;4.70;4.25;;;20.10;39.10;;;;;;4953170;29;20218;-66
2022/03/11 06:58:42;;;;;;;4.05;3.70;;;20.20;39.30;;;;;;4954323;29;20655;-66
2022/03/11 07:01:08;;;;;;;4.70;4.30;;;20.20;39.20;;;;;;4953313;29;20214;-66
2022/03/11 07:03:34;;;;;;;4.55;4.15;;;20.20;39.30;;;;;;4953015;29;20187;-66
2022/03/11 07:06:00;;;;;;;4.40;4.00;;;20.20;39.20;;;;;;4952737;29;20233;-67
2022/03/11 07:08:25;;;;;;;4.32;3.95;;;20.30;39.30;;;;;;4953238;29;20179;-66
2022/03/11 07:10:51;;;;;;;4.18;3.78;;;20.30;39.30;;;;;;4953428;29;20201;-66
2022/03/11 07:13:17;;;;;;;4.43;3.97;;;20.30;39.30;;;;;;4952456;29;20197;-66
2022/03/11 07:15:43;;;;;;;6.00;4.28;;;20.40;39.30;;;;;;4953025;29;20194;-62
2022/03/11 07:18:09;;;;;;;4.20;3.80;;;20.40;39.30;;;;;;4954044;28;20217;-66
2022/03/11 07:20:35;;;;;;;4.25;3.88;;;20.40;39.30;;;;;;4954106;29;20241;-66
2022/03/11 07:23:00;;;;;;;4.13;3.75;;;20.40;39.20;;;;;;4936940;29;20197;-66
2022/03/11 07:25:28;;;;;;;4.63;4.22;;;20.50;39.20;;;;;;4952913;29;20182;-66
2022/03/11 07:27:54;;;;;;;4.50;4.10;;;20.50;39.20;;;;;;4953071;29;20226;-66
2022/03/11 07:30:19;;;;;;;4.75;4.35;;;20.50;39.20;;;;;;4952998;29;20186;-66
2022/03/11 07:32:46;;;;;;;4.00;3.70;;;20.50;39.20;;;;;;4952987;29;20187;-67
2022/03/11 07:35:13;;;;;;;4.53;4.13;;;20.50;39.20;;;;;;4954189;28;20566;-66
2022/03/11 07:37:40;;;;;;;4.53;4.13;;;20.60;39.20;;;;;;4953000;29;20249;-66
2022/03/11 07:40:08;;;;;;;4.30;3.90;;;20.60;39.20;;;;;;4952781;29;20193;-66
2022/03/11 07:42:42;;;;;;;4.20;3.78;;;20.60;39.20;;;;;;4952970;29;20207;-66
2022/03/11 07:45:14;;;;;;;4.60;4.20;;;20.60;39.20;;;;;;4952832;29;20198;-66
2022/03/11 07:47:41;;;;;;;4.78;4.38;;;20.60;39.10;;;;;;4938650;29;20609;-66
2022/03/11 07:50:10;;;;;;;4.32;3.92;;;20.60;39.20;;;;;;4940655;29;20186;-66
2022/03/11 07:52:38;;;;;;;4.40;4.00;;;20.70;39.20;;;;;;4956783;29;20334;-66
2022/03/11 07:55:09;;;;;;;4.47;3.80;;;20.60;39.20;;;;;;4940787;29;20210;-67
2022/03/11 07:57:36;;;;;;;4.05;3.65;;;20.70;39.10;;;;;;4937151;29;20226;-65
2022/03/11 08:00:08;;;;;;;4.18;3.80;;;20.70;39.20;;;;;;4921695;29;20198;-66
2022/03/11 08:02:40;;;;;;;4.63;4.22;;;20.70;39.10;;;;;;4941551;29;20276;-66
2022/03/11 08:05:11;;;;;;;4.22;3.83;;;20.70;39.10;;;;;;4955911;28;20699;-66
2022/03/11 08:07:37;;;;;;;4.63;4.22;;;20.70;39.10;;;;;;4939706;29;20222;-66
2022/03/11 08:10:03;;;;;;;4.20;3.80;;;20.70;39.10;;;;;;4955903;29;20194;-67
2022/03/11 08:12:29;;;;;;;4.47;4.07;;;20.70;39.00;;;;;;4956424;29;20200;-67
2022/03/11 08:14:57;;;;;;;5.10;4.35;;;20.70;39.00;;;;;;4955996;29;20190;-66
2022/03/11 08:17:23;;;;;;;4.47;4.07;;;20.70;39.00;;;;;;4940968;29;20214;-65
2022/03/11 08:19:51;;;;;;;4.20;3.80;;;20.70;39.00;;;;;;4955788;29;20214;-66
2022/03/11 08:22:17;;;;;;;4.13;3.80;;;20.70;39.00;;;;;;4940253;29;20189;-65
2022/03/11 08:24:42;;;;;;;3.95;3.65;;;20.70;38.90;;;;;;4955603;29;20186;-63
2022/03/11 08:27:11;;;;;;;4.53;3.90;;;20.70;39.00;;;;;;4955567;28;20198;-66
2022/03/11 08:29:37;;;;;;;4.18;3.78;;;20.70;39.00;;;;;;4939925;29;20198;-66
2022/03/11 08:32:04;;;;;;;4.32;3.92;;;20.70;39.00;;;;;;4940804;29;20202;-66
2022/03/11 08:34:30;;;;;;;4.30;3.90;;;20.70;38.90;;;;;;4939156;29;20875;-65
2022/03/11 08:36:56;;;;;;;4.28;3.88;;;20.80;38.90;;;;;;4956372;29;20301;-66
2022/03/11 08:39:21;;;;;;;4.22;3.83;;;20.70;38.90;;;;;;4958948;28;20264;-66
2022/03/11 08:41:47;;;;;;;3.75;3.45;;;20.70;38.90;;;;;;4958956;28;20236;-66
2022/03/11 08:44:13;;;;;;;4.03;3.72;;;20.80;39.00;;;;;;4941586;29;20207;-66
2022/03/11 08:46:39;;;;;;;4.32;3.92;;;20.70;38.90;;;;;;4943755;29;20214;-66
2022/03/11 08:49:07;;;;;;;4.07;3.78;;;20.70;38.90;;;;;;4955565;29;20182;-65
2022/03/11 08:51:33;;;;;;;4.85;4.38;;;20.70;38.90;;;;;;4924102;29;20190;-67
2022/03/11 08:53:59;;;;;;;4.25;3.85;;;20.80;39.00;;;;;;4954697;29;20237;-66
2022/03/11 08:56:25;;;;;;;4.18;3.78;;;20.80;38.90;;;;;;4955438;28;20210;-65
2022/03/11 08:58:51;;;;;;;4.45;4.05;;;20.70;38.90;;;;;;4938601;29;20194;-66
2022/03/11 09:01:18;;;;;;;5.00;4.10;;;20.80;39.00;;;;;;4945841;29;20682;-65
2022/03/11 09:03:44;;;;;;;4.00;3.70;;;20.70;38.90;;;;;;4938935;28;20241;-67
2022/03/11 09:06:10;;;;;;;4.07;3.78;;;20.80;39.00;;;;;;4938870;29;20210;-66
2022/03/11 09:08:37;;;;;;;4.32;3.90;;;20.80;39.00;;;;;;4955196;29;20202;-66
2022/03/11 09:11:03;;;;;;;4.15;3.80;;;20.80;38.90;;;;;;4955374;29;20222;-64
2022/03/11 09:13:30;;;;;;;3.85;3.55;;;20.70;38.90;;;;;;4954976;28;20209;-66
2022/03/11 09:15:55;;;;;;;4.28;3.88;;;20.70;38.90;;;;;;4946792;29;20683;-65
2022/03/11 09:18:21;;;;;;;4.22;3.83;;;20.80;39.00;;;;;;4954925;29;20174;-66
2022/03/11 09:20:47;;;;;;;4.10;3.70;;;20.80;38.80;;;;;;4943061;29;20255;-66
2022/03/11 09:23:13;;;;;;;3.97;3.60;;;20.70;38.80;;;;;;4938888;29;20209;-66
2022/03/11 09:25:39;;;;;;;3.85;3.55;;;20.70;38.90;;;;;;4955608;29;20222;-67
2022/03/11 09:28:06;;;;;;;4.65;4.05;;;20.70;38.80;;;;;;4955126;29;20289;-66
2022/03/11 09:30:34;;;;;;;4.28;3.88;;;20.70;38.80;;;;;;4939241;29;20186;-66
2022/03/11 09:33:00;;;;;;;4.03;3.63;;;20.70;38.80;;;;;;4955665;28;20686;-66
2022/03/11 09:35:26;;;;;;;4.43;4.03;;;20.80;38.60;;;;;;4954574;29;20186;-65
2022/03/11 09:37:52;;;;;;;7.18;4.55;;;20.70;38.90;;;;;;4938175;29;20653;-66
2022/03/11 09:40:17;;;;;;;6.07;5.45;;;20.80;38.70;;;;;;4954772;29;20198;-66
2022/03/11 09:42:44;;;;;;;5.82;5.03;;;20.70;38.60;;;;;;4938821;29;20210;-66
2022/03/11 09:45:10;;;;;;;4.72;4.32;;;20.70;38.80;;;;;;4952492;29;20182;-66
2022/03/11 09:47:40;;;;;;;4.90;4.50;;;20.70;38.80;;;;;;4954005;29;20642;-66
2022/03/11 09:50:07;;;;;;;4.93;4.43;;;20.70;38.90;;;;;;4937906;29;20233;-65
2022/03/11 09:52:36;;;;;;;6.75;4.68;;;20.80;38.90;;;;;;4935023;29;20191;-66
2022/03/11 09:55:02;;;;;;;5.22;4.72;;;20.80;39.00;;;;;;4953532;29;20711;-66
2022/03/11 09:57:28;;;;;;;4.72;4.32;;;20.70;38.80;;;;;;4937703;29;20650;-66
2022/03/11 09:59:55;;;;;;;5.20;4.65;;;20.70;38.80;;;;;;4938739;29;20187;-64
2022/03/11 10:02:21;;;;;;;4.90;3.97;;;20.70;38.70;;;;;;4955415;29;20190;-67
2022/03/11 10:04:50;;;;;;;4.13;3.72;;;20.80;38.90;;;;;;4969617;28;20269;-66
2022/03/11 10:07:27;;;;;;;5.40;4.90;;;20.70;38.80;;;;;;4984560;23;20251;-67
2022/03/11 10:09:56;;;;;;;4.28;3.88;;;20.80;39.00;;;;;;4976712;28;20287;-67
2022/03/11 10:12:26;;;;;;;4.70;4.20;;;20.70;38.90;;;;;;4976612;28;20231;-67
2022/03/11 10:15:03;;;;;;;4.63;4.22;;;20.70;38.90;;;;;;4978590;28;20213;-67
2022/03/11 10:17:45;;;;;;;4.63;4.22;;;20.70;38.90;;;;;;4988101;28;20740;-67
2022/03/11 10:20:14;;;;;;;4.18;3.78;;;20.70;38.90;;;;;;4960382;28;20191;-67
2022/03/11 10:22:45;;;;;;;4.45;4.05;;;20.70;38.80;;;;;;4993552;28;20227;-67
2022/03/11 10:25:21;;;;;;;5.03;4.63;;;20.70;39.40;;;;;;4992161;28;20264;-67
2022/03/11 10:27:54;;;;;;;4.75;4.35;;;20.70;38.90;;;;;;4975918;28;20282;-67
2022/03/11 10:30:22;;;;;;;5.10;4.60;;;20.70;38.80;;;;;;4993645;28;20281;-67
2022/03/11 10:32:57;;;;;;;4.28;3.88;;;20.70;38.90;;;;;;4993557;28;20188;-67
2022/03/11 10:35:34;;;;;;;4.47;4.07;;;20.70;38.90;;;;;;4963289;28;20180;-67
2022/03/11 10:38:09;;;;;;;4.38;3.97;;;20.70;38.90;;;;;;4992178;28;20208;-68
2022/03/11 10:40:41;;;;;;;4.47;4.07;;;20.70;38.90;;;;;;4960087;28;20180;-68
2022/03/11 10:43:14;;;;;;;4.43;4.00;;;20.70;38.90;;;;;;4992084;28;20203;-68
2022/03/11 10:46:06;;;;;;;4.50;4.10;;;20.70;38.90;;;;;;4993019;28;20200;-67
2022/03/11 10:48:49;;;;;;;4.55;4.15;;;20.70;38.90;;;;;;4959758;28;20250;-67
2022/03/11 10:51:33;;;;;;;4.32;3.92;;;20.80;39.00;;;;;;4959871;28;20196;-67
2022/03/11 10:54:01;;;;;;;3.70;3.40;;;20.70;39.10;;;;;;4975641;28;20695;-66
2022/03/11 10:56:39;;;;;;;4.03;3.65;;;20.70;39.00;;;;;;4959432;28;20212;-66
2022/03/11 10:59:30;;;;;;;4.22;3.83;;;20.70;38.90;;;;;;4991936;28;20212;-65
2022/03/11 11:01:57;;;;;;;5.07;4.10;;;20.70;39.00;;;;;;4975855;28;20188;-66
2022/03/11 11:04:26;;;;;;;4.70;3.85;;;20.70;39.00;;;;;;4991721;28;20234;-65
2022/03/11 11:06:54;;;;;;;4.70;4.20;;;20.70;39.00;;;;;;4975327;28;20181;-66
2022/03/11 11:09:22;;;;;;;6.90;4.18;;;20.70;39.10;;;;;;4975400;28;20185;-65
2022/03/11 11:11:50;;;;;;;4.20;3.85;;;20.70;39.20;;;;;;4975523;28;20196;-65
2022/03/11 11:14:16;;;;;;;6.43;4.22;;;20.80;39.00;;;;;;4992589;28;20185;-66
2022/03/11 11:16:44;;;;;;;4.25;3.85;;;20.80;39.00;;;;;;4975163;28;20203;-66
2022/03/11 11:19:12;;;;;;;4.53;4.10;;;20.70;39.10;;;;;;4967690;28;20208;-66
2022/03/11 11:21:50;;;;;;;4.32;3.92;;;20.70;39.10;;;;;;4942288;28;20190;-66
2022/03/11 11:24:19;;;;;;;5.22;4.03;;;20.80;39.00;;;;;;4996043;28;20185;-66
2022/03/11 11:26:49;;;;;;;4.80;4.07;;;20.70;38.90;;;;;;4975393;28;20184;-66
2022/03/11 11:29:21;;;;;;;4.38;3.97;;;20.70;39.20;;;;;;4975564;28;20189;-67
2022/03/11 11:31:48;;;;;;;4.35;3.95;;;20.70;39.20;;;;;;4984760;28;20196;-66
2022/03/11 11:34:27;;;;;;;4.90;4.47;;;20.70;39.00;;;;;;4986161;28;20191;-66
2022/03/11 11:36:53;;;;;;;4.28;3.88;;;20.70;39.30;;;;;;4987575;28;20205;-67
2022/03/11 11:39:19;;;;;;;4.82;4.10;;;20.70;39.20;;;;;;4953718;28;20184;-67
2022/03/11 11:41:55;;;;;;;4.68;4.07;;;20.70;39.10;;;;;;4972374;28;20189;-67
2022/03/11 11:44:33;;;;;;;4.60;4.10;;;20.70;39.20;;;;;;4967838;28;20335;-66
2022/03/11 11:47:31;;;;;;;4.40;4.00;;;20.70;39.30;;;;;;4975128;28;20185;-67
2022/03/11 11:49:57;;;;;;;4.38;3.97;;;20.70;39.30;;;;;;4975169;28;20204;-67
2022/03/11 11:52:36;;;;;;;4.60;4.20;;;20.70;39.30;;;;;;4991135;28;20193;-67
2022/03/11 11:55:19;;;;;;;4.20;3.80;;;20.80;39.30;;;;;;4980682;28;20219;-67
2022/03/11 11:57:47;;;;;;;4.80;4.30;;;20.70;39.30;;;;;;4990982;28;20248;-67
2022/03/11 12:00:36;;;;;;;4.40;4.00;;;20.70;39.30;;;;;;4991350;28;20239;-67
2022/03/11 12:03:05;;;;;;;3.95;3.60;;;20.70;39.40;;;;;;4991113;28;20177;-67
2022/03/11 12:05:48;;;;;;;4.50;4.10;;;20.70;39.30;;;;;;4991404;28;20192;-68
2022/03/11 12:08:39;;;;;;;6.22;4.13;;;20.70;39.30;;;;;;4990971;28;20303;-67
2022/03/11 12:11:06;;;;;;;4.95;4.50;;;20.70;39.30;;;;;;4975052;28;20221;-67
2022/03/11 12:13:37;;;;;;;4.85;4.45;;;20.70;39.30;;;;;;4975124;28;20196;-68
2022/03/11 12:16:26;;;;;;;5.00;4.10;;;20.70;39.30;;;;;;4982986;28;20284;-68
2022/03/11 12:18:52;;;;;;;4.28;3.80;;;20.70;39.30;;;;;;4975195;28;20209;-67
2022/03/11 12:21:40;;;;;;;4.05;3.65;;;20.70;39.30;;;;;;4972545;28;20185;-68
2022/03/11 12:24:32;;;;;;;4.30;3.90;;;20.70;39.40;;;;;;4948978;28;20606;-68
2022/03/11 12:26:58;;;;;;;4.40;3.88;;;20.70;39.30;;;;;;4991834;28;20188;-67
2022/03/11 12:29:35;;;;;;;5.50;4.28;;;20.70;39.40;;;;;;4992224;28;20193;-67
2022/03/11 12:32:14;;;;;;;5.30;4.05;;;20.70;39.40;;;;;;4991037;28;20212;-67
2022/03/11 12:34:41;;;;;;;4.60;4.20;;;20.70;39.40;;;;;;4976620;28;20177;-67
2022/03/11 12:37:14;;;;;;;8.02;4.40;;;20.70;39.30;;;;;;4994079;28;20216;-68
2022/03/11 12:39:41;;;;;;;9.13;5.10;;;20.70;39.30;;;;;;4986135;28;20299;-67
2022/03/11 12:42:07;;;;;;;4.85;3.83;;;20.70;39.60;;;;;;4995755;28;20217;-67
2022/03/11 12:44:53;;;;;;;4.07;3.70;;;20.80;39.90;;;;;;4995282;28;20255;-67
2022/03/11 12:47:19;;;;;;;4.63;3.63;;;20.80;39.80;;;;;;4972687;28;20245;-68
2022/03/11 12:49:45;;;;;;;4.32;3.92;;;20.70;39.80;;;;;;4978111;28;20222;-67
2022/03/11 12:52:19;;;;;;;5.10;4.20;;;20.80;39.80;;;;;;4962150;28;20192;-67
2022/03/11 12:54:45;;;;;;;5.50;4.00;;;20.70;39.70;;;;;;4977407;28;20668;-67